Time;durP1;ratioP1;P1;durP2;ratioP2;P2;SDS_P1;SDS_P2;PMS_P1;PMS_P2;Temp;Humidity;BMP_temperature;BMP_pressure;BME280_temperature;BME280_humidity;BME280_pressure;Samples;Min_cycle;Max_cycle;Signal;HPM_P1;HPM_P2
2021/06/08 00:00:49;;;;;;;14.48;11.32;;;;;;;;;;5031976;28;20083;-66
2021/06/08 00:03:14;;;;;;;19.40;11.55;;;;;;;;;;5032258;28;20576;-67
2021/06/08 00:05:39;;;;;;;15.43;11.02;;;;;;;;;;5032815;28;20049;-67
2021/06/08 00:08:04;;;;;;;14.50;11.17;;;;;;;;;;5032581;28;20132;-66
2021/06/08 00:10:30;;;;;;;17.23;10.40;;;;;;;;;;5031196;28;20260;-66
2021/06/08 00:13:08;;;;;;;16.33;11.88;;;;;;;;;;5081279;23;20087;-90
2021/06/08 00:15:55;;;;;;;16.58;11.13;;;;;;;;;;5059220;28;20469;-90
2021/06/08 00:18:33;;;;;;;16.63;11.05;;;;;;;;;;5038277;28;20112;-92
2021/06/08 00:20:58;;;;;;;19.35;11.23;;;;;;;;;;5072280;23;20028;-67
2021/06/08 00:23:23;;;;;;;18.55;11.60;;;;;;;;;;5052207;28;20370;-65
2021/06/08 00:25:49;;;;;;;15.98;11.38;;;;;;;;;;5052074;28;20028;-65
2021/06/08 00:28:14;;;;;;;17.55;11.98;;;;;;;;;;5051622;28;20017;-67
2021/06/08 00:30:39;;;;;;;17.30;11.70;;;;;;;;;;5051861;28;20471;-67
2021/06/08 00:33:04;;;;;;;15.75;12.55;;;;;;;;;;5052000;28;20025;-65
2021/06/08 00:35:30;;;;;;;16.52;12.00;;;;;;;;;;5052123;28;20471;-68
2021/06/08 00:37:55;;;;;;;25.30;13.75;;;;;;;;;;5051525;28;20059;-68
2021/06/08 00:40:21;;;;;;;19.63;13.18;;;;;;;;;;5052048;28;20288;-67
2021/06/08 00:42:46;;;;;;;19.33;13.32;;;;;;;;;;5052360;28;20028;-67
2021/06/08 00:45:12;;;;;;;20.33;13.80;;;;;;;;;;5046935;28;20025;-67
2021/06/08 00:47:37;;;;;;;22.90;14.57;;;;;;;;;;5051332;28;20077;-67
2021/06/08 00:50:02;;;;;;;21.95;15.70;;;;;;;;;;5051971;28;20463;-67
2021/06/08 00:52:28;;;;;;;21.30;14.65;;;;;;;;;;5051203;28;20013;-67
2021/06/08 00:54:53;;;;;;;34.63;16.50;;;;;;;;;;5040547;28;20024;-65
2021/06/08 00:57:18;;;;;;;19.75;14.68;;;;;;;;;;5048002;28;20329;-67
2021/06/08 00:59:43;;;;;;;21.93;13.30;;;;;;;;;;5051556;28;20500;-66
2021/06/08 01:02:08;;;;;;;22.60;14.67;;;;;;;;;;5051325;28;20275;-66
2021/06/08 01:04:34;;;;;;;19.33;13.10;;;;;;;;;;5034696;28;20260;-66
2021/06/08 01:06:59;;;;;;;26.15;13.27;;;;;;;;;;5050629;28;20643;-66
2021/06/08 01:09:24;;;;;;;18.95;13.02;;;;;;;;;;5047196;28;20387;-65
2021/06/08 01:11:49;;;;;;;18.85;13.50;;;;;;;;;;5044211;28;20472;-66
2021/06/08 01:14:15;;;;;;;18.25;13.65;;;;;;;;;;5051550;28;20021;-67
2021/06/08 01:16:40;;;;;;;19.88;13.73;;;;;;;;;;5051277;28;20471;-67
2021/06/08 01:19:05;;;;;;;19.92;13.32;;;;;;;;;;5051490;28;20459;-65
2021/06/08 01:21:31;;;;;;;21.58;14.88;;;;;;;;;;5050547;28;20048;-67
2021/06/08 01:23:56;;;;;;;22.38;13.23;;;;;;;;;;5050705;28;20371;-67
2021/06/08 01:26:26;;;;;;;24.57;13.80;;;;;;;;;;5050267;28;20115;-67
2021/06/08 01:28:51;;;;;;;18.40;13.10;;;;;;;;;;5051455;28;20394;-68
2021/06/08 01:31:19;;;;;;;16.27;11.85;;;;;;;;;;5049988;28;20655;-68
2021/06/08 01:33:44;;;;;;;18.17;13.23;;;;;;;;;;5051585;28;20029;-66
2021/06/08 01:36:12;;;;;;;18.48;13.40;;;;;;;;;;5043776;28;20485;-67
2021/06/08 01:38:38;;;;;;;29.73;15.88;;;;;;;;;;5050606;28;20099;-68
2021/06/08 01:41:04;;;;;;;22.95;14.38;;;;;;;;;;5051014;28;20025;-67
2021/06/08 01:43:29;;;;;;;19.27;14.05;;;;;;;;;;5050243;28;20229;-65
2021/06/08 01:45:54;;;;;;;21.13;15.48;;;;;;;;;;5050786;28;20655;-66
2021/06/08 01:48:20;;;;;;;24.45;15.32;;;;;;;;;;5050098;28;20064;-66
2021/06/08 01:50:48;;;;;;;20.75;14.13;;;;;;;;;;5050379;28;20021;-65
2021/06/08 01:53:20;;;;;;;27.80;15.88;;;;;;;;;;5050615;28;20108;-65
2021/06/08 01:55:46;;;;;;;18.08;13.25;;;;;;;;;;5050443;28;20013;-66
2021/06/08 01:58:14;;;;;;;25.15;15.57;;;;;;;;;;5050556;28;20552;-66
2021/06/08 02:00:58;;;;;;;22.88;15.93;;;;;;;;;;5049056;28;20025;-65
2021/06/08 02:03:23;;;;;;;21.30;15.00;;;;;;;;;;5049397;28;20021;-66
2021/06/08 02:05:51;;;;;;;24.42;15.15;;;;;;;;;;5049916;28;20040;-65
2021/06/08 02:08:34;;;;;;;23.33;15.35;;;;;;;;;;5050473;28;20032;-67
2021/06/08 02:11:05;;;;;;;20.58;14.55;;;;;;;;;;5049905;28;20013;-65
2021/06/08 02:13:34;;;;;;;21.85;15.18;;;;;;;;;;5050464;28;20017;-68
2021/06/08 02:16:06;;;;;;;22.92;14.45;;;;;;;;;;5049949;28;20395;-67
2021/06/08 02:18:33;;;;;;;21.38;14.88;;;;;;;;;;5035873;28;20031;-67
2021/06/08 02:21:01;;;;;;;23.65;15.52;;;;;;;;;;5050201;28;20115;-65
2021/06/08 02:23:27;;;;;;;25.33;16.05;;;;;;;;;;5050448;28;20017;-65
2021/06/08 02:25:53;;;;;;;21.05;14.20;;;;;;;;;;5049160;28;20060;-66
2021/06/08 02:28:20;;;;;;;22.80;15.18;;;;;;;;;;5050032;28;20492;-65
2021/06/08 02:30:46;;;;;;;24.70;15.45;;;;;;;;;;5049652;28;20441;-66
2021/06/08 02:33:12;;;;;;;26.02;16.25;;;;;;;;;;5049713;28;20126;-66
2021/06/08 02:35:38;;;;;;;23.10;15.20;;;;;;;;;;5045639;28;20056;-67
2021/06/08 02:38:03;;;;;;;18.70;13.32;;;;;;;;;;5049796;28;20021;-66
2021/06/08 02:40:29;;;;;;;19.35;14.18;;;;;;;;;;5049965;28;20032;-67
2021/06/08 02:42:54;;;;;;;20.65;14.93;;;;;;;;;;5031478;28;20028;-66
2021/06/08 02:45:20;;;;;;;26.05;15.45;;;;;;;;;;5049419;28;20047;-68
2021/06/08 02:47:46;;;;;;;17.88;13.82;;;;;;;;;;5050181;28;20112;-65
2021/06/08 02:50:12;;;;;;;19.77;14.85;;;;;;;;;;5047702;28;20052;-69
2021/06/08 02:52:37;;;;;;;24.77;13.93;;;;;;;;;;5039463;28;20029;-67
2021/06/08 02:55:03;;;;;;;24.80;14.23;;;;;;;;;;5038030;28;20051;-66
2021/06/08 02:57:29;;;;;;;22.42;14.85;;;;;;;;;;5046992;28;20031;-67
2021/06/08 03:00:01;;;;;;;23.90;14.43;;;;;;;;;;5047564;28;20084;-68
2021/06/08 03:02:27;;;;;;;18.38;14.75;;;;;;;;;;5047481;28;20032;-67
2021/06/08 03:04:57;;;;;;;22.73;15.75;;;;;;;;;;5047469;28;20028;-66
2021/06/08 03:07:22;;;;;;;;;;;;;;;;;;5048177;28;20056;-67
2021/06/08 03:09:52;;;;;;;22.73;15.05;;;;;;;;;;5048541;28;19967;-68
2021/06/08 03:12:20;;;;;;;22.50;14.90;;;;;;;;;;5047791;28;20029;-67
2021/06/08 03:14:46;;;;;;;20.52;14.60;;;;;;;;;;5048302;28;20032;-67
2021/06/08 03:17:14;;;;;;;21.40;16.15;;;;;;;;;;5047182;28;20552;-66
2021/06/08 03:19:41;;;;;;;26.63;16.17;;;;;;;;;;5047732;28;20530;-67
2021/06/08 03:22:15;;;;;;;27.40;16.48;;;;;;;;;;5045244;28;20036;-66
2021/06/08 03:24:41;;;;;;;26.60;16.40;;;;;;;;;;5049873;28;20032;-66
2021/06/08 03:27:07;;;;;;;22.75;15.43;;;;;;;;;;5048601;28;20056;-66
2021/06/08 03:29:34;;;;;;;21.73;14.68;;;;;;;;;;5050783;28;20037;-66
2021/06/08 03:32:00;;;;;;;19.42;15.25;;;;;;;;;;5053359;28;20028;-67
2021/06/08 03:34:25;;;;;;;19.05;14.23;;;;;;;;;;5052564;28;20024;-66
2021/06/08 03:36:52;;;;;;;21.45;15.38;;;;;;;;;;5052828;28;20391;-66
2021/06/08 03:39:18;;;;;;;24.63;14.88;;;;;;;;;;5052757;28;20453;-66
2021/06/08 03:41:45;;;;;;;22.98;14.50;;;;;;;;;;5053120;28;20123;-66
2021/06/08 03:44:12;;;;;;;21.83;15.02;;;;;;;;;;5053565;28;20100;-66
2021/06/08 03:46:37;;;;;;;22.65;15.93;;;;;;;;;;5052302;28;20036;-66
2021/06/08 03:49:02;;;;;;;25.20;16.02;;;;;;;;;;5053067;28;20033;-66
2021/06/08 03:51:28;;;;;;;29.13;17.00;;;;;;;;;;5053106;28;20071;-66
2021/06/08 03:53:53;;;;;;;25.95;16.10;;;;;;;;;;5052620;28;20387;-66
2021/06/08 03:56:19;;;;;;;26.20;16.52;;;;;;;;;;5053101;28;20029;-66
2021/06/08 03:58:44;;;;;;;23.75;16.63;;;;;;;;;;5052718;28;20033;-66
2021/06/08 04:01:10;;;;;;;30.90;17.15;;;;;;;;;;5052777;28;20049;-66
2021/06/08 04:03:35;;;;;;;26.50;17.33;;;;;;;;;;5051778;28;20454;-66
2021/06/08 04:06:04;;;;;;;27.10;16.25;;;;;;;;;;5052485;28;20020;-66
2021/06/08 04:08:29;;;;;;;23.48;16.23;;;;;;;;;;5052616;28;20382;-66
2021/06/08 04:10:55;;;;;;;27.75;18.15;;;;;;;;;;5038238;28;20109;-66
2021/06/08 04:13:20;;;;;;;25.92;17.83;;;;;;;;;;5050056;28;20486;-66
2021/06/08 04:15:47;;;;;;;22.92;15.98;;;;;;;;;;5052422;28;20519;-66
2021/06/08 04:18:13;;;;;;;29.17;17.20;;;;;;;;;;5052621;28;20024;-66
2021/06/08 04:20:38;;;;;;;24.88;16.50;;;;;;;;;;5052260;28;20036;-67
2021/06/08 04:23:03;;;;;;;27.38;16.25;;;;;;;;;;5052615;28;20101;-66
2021/06/08 04:25:29;;;;;;;28.25;16.65;;;;;;;;;;5052022;28;20017;-66
2021/06/08 04:27:54;;;;;;;30.13;17.20;;;;;;;;;;5046549;28;20052;-66
2021/06/08 04:30:20;;;;;;;25.02;17.17;;;;;;;;;;5050667;28;20021;-66
2021/06/08 04:32:46;;;;;;;26.45;18.05;;;;;;;;;;5045713;28;20498;-66
2021/06/08 04:35:12;;;;;;;30.10;17.58;;;;;;;;;;5043924;28;20017;-66
2021/06/08 04:37:37;;;;;;;31.90;19.05;;;;;;;;;;5051535;28;20017;-66
2021/06/08 04:40:03;;;;;;;28.15;18.70;;;;;;;;;;5051693;28;20017;-66
2021/06/08 04:42:29;;;;;;;25.70;18.23;;;;;;;;;;5050177;28;20032;-66
2021/06/08 04:44:54;;;;;;;29.83;19.50;;;;;;;;;;5043408;28;20253;-66
2021/06/08 04:47:20;;;;;;;31.33;18.83;;;;;;;;;;5051503;28;20036;-66
2021/06/08 04:49:46;;;;;;;23.75;17.98;;;;;;;;;;5041833;28;20068;-66
2021/06/08 04:52:11;;;;;;;28.92;17.42;;;;;;;;;;5052075;28;20075;-66
2021/06/08 04:54:37;;;;;;;24.20;16.73;;;;;;;;;;5051759;28;20013;-67
2021/06/08 04:57:03;;;;;;;24.27;16.70;;;;;;;;;;5051931;28;20028;-67
2021/06/08 04:59:34;;;;;;;27.17;17.15;;;;;;;;;;5049333;28;20021;-67
2021/06/08 05:02:02;;;;;;;22.90;17.50;;;;;;;;;;5051776;28;20036;-67
2021/06/08 05:04:28;;;;;;;26.15;19.40;;;;;;;;;;5051778;28;20056;-67
2021/06/08 05:06:55;;;;;;;34.95;19.35;;;;;;;;;;5051646;28;20068;-67
2021/06/08 05:09:21;;;;;;;35.85;19.52;;;;;;;;;;5051426;28;20021;-67
2021/06/08 05:11:52;;;;;;;33.38;18.58;;;;;;;;;;5051855;28;20051;-67
2021/06/08 05:14:18;;;;;;;26.15;18.98;;;;;;;;;;5049363;28;20024;-67
2021/06/08 05:16:45;;;;;;;26.10;18.73;;;;;;;;;;5043631;28;20017;-67
2021/06/08 05:19:12;;;;;;;28.00;19.65;;;;;;;;;;5051656;28;20094;-67
2021/06/08 05:21:37;;;;;;;28.23;18.95;;;;;;;;;;5051029;28;20029;-67
2021/06/08 05:24:03;;;;;;;31.17;21.52;;;;;;;;;;5051130;28;20037;-67
2021/06/08 05:26:29;;;;;;;30.42;18.42;;;;;;;;;;5050750;28;20048;-67
2021/06/08 05:28:55;;;;;;;34.33;21.38;;;;;;;;;;5051163;28;20071;-67
2021/06/08 05:31:20;;;;;;;33.13;19.55;;;;;;;;;;5051166;28;20075;-67
2021/06/08 05:33:46;;;;;;;33.03;19.55;;;;;;;;;;5050502;28;20032;-67
2021/06/08 05:36:11;;;;;;;29.45;19.45;;;;;;;;;;5051634;28;20075;-67
2021/06/08 05:38:38;;;;;;;43.63;19.13;;;;;;;;;;5048409;28;20052;-67
2021/06/08 05:41:03;;;;;;;29.10;20.23;;;;;;;;;;5039527;28;20104;-67
2021/06/08 05:43:28;;;;;;;27.67;19.03;;;;;;;;;;5045373;28;20135;-67
2021/06/08 05:45:54;;;;;;;36.90;19.27;;;;;;;;;;5046857;28;20275;-66
2021/06/08 05:48:19;;;;;;;34.05;19.73;;;;;;;;;;5041136;28;20309;-67
2021/06/08 05:50:45;;;;;;;39.25;19.63;;;;;;;;;;5038279;28;20035;-67
2021/06/08 05:53:10;;;;;;;42.43;19.17;;;;;;;;;;5045551;28;20013;-67
2021/06/08 05:55:36;;;;;;;46.53;26.23;;;;;;;;;;5045653;28;20362;-67
2021/06/08 05:58:03;;;;;;;40.10;25.48;;;;;;;;;;5027811;28;20263;-67
2021/06/08 06:00:29;;;;;;;40.00;26.60;;;;;;;;;;5046945;28;20032;-67
2021/06/08 06:02:55;;;;;;;38.13;27.00;;;;;;;;;;5046762;28;20021;-67
2021/06/08 06:05:20;;;;;;;45.25;26.70;;;;;;;;;;5039123;28;20117;-68
2021/06/08 06:07:45;;;;;;;41.63;25.95;;;;;;;;;;5044835;28;20487;-67
2021/06/08 06:10:11;;;;;;;43.15;25.35;;;;;;;;;;5050294;28;20096;-67
2021/06/08 06:12:37;;;;;;;34.90;22.35;;;;;;;;;;5066689;23;20451;-68
2021/06/08 06:15:04;;;;;;;41.13;27.65;;;;;;;;;;5049469;28;20068;-66
2021/06/08 06:17:36;;;;;;;51.25;26.85;;;;;;;;;;5050477;28;20013;-65
2021/06/08 06:20:03;;;;;;;43.97;29.73;;;;;;;;;;5048360;28;20075;-66
2021/06/08 06:22:28;;;;;;;42.42;28.63;;;;;;;;;;5050898;28;20064;-66
2021/06/08 06:24:54;;;;;;;43.70;28.30;;;;;;;;;;5046631;28;20052;-66
2021/06/08 06:27:19;;;;;;;54.17;30.98;;;;;;;;;;5033450;28;20484;-66
2021/06/08 06:29:45;;;;;;;49.15;28.67;;;;;;;;;;5049252;28;20447;-66
2021/06/08 06:32:11;;;;;;;40.42;25.10;;;;;;;;;;5049465;28;20073;-66
2021/06/08 06:34:36;;;;;;;40.10;25.13;;;;;;;;;;5050140;28;20088;-66
2021/06/08 06:37:04;;;;;;;43.13;26.70;;;;;;;;;;5049917;28;20309;-67
2021/06/08 06:39:31;;;;;;;36.72;25.15;;;;;;;;;;5050001;28;20260;-67
2021/06/08 06:41:59;;;;;;;42.65;25.02;;;;;;;;;;5049900;28;20162;-67
2021/06/08 06:44:25;;;;;;;37.83;23.33;;;;;;;;;;5050555;28;20092;-67
2021/06/08 06:46:51;;;;;;;32.65;22.10;;;;;;;;;;5043145;28;20132;-66
2021/06/08 06:49:16;;;;;;;31.42;22.58;;;;;;;;;;5042587;28;20087;-67
2021/06/08 06:51:43;;;;;;;32.20;22.38;;;;;;;;;;5045188;28;20048;-66
2021/06/08 06:54:09;;;;;;;28.98;20.95;;;;;;;;;;5055356;28;20031;-66
2021/06/08 06:56:34;;;;;;;31.67;21.90;;;;;;;;;;5049871;28;20111;-66
2021/06/08 06:58:59;;;;;;;33.80;19.42;;;;;;;;;;5049565;28;20380;-66
2021/06/08 07:01:25;;;;;;;40.63;20.42;;;;;;;;;;5048942;28;20028;-66
2021/06/08 07:03:51;;;;;;;35.08;21.33;;;;;;;;;;5043570;28;20031;-66
2021/06/08 07:06:17;;;;;;;29.38;20.95;;;;;;;;;;5048452;28;20017;-68
2021/06/08 07:08:42;;;;;;;29.73;20.88;;;;;;;;;;5038097;28;20087;-68
2021/06/08 07:11:08;;;;;;;36.65;21.65;;;;;;;;;;5049505;28;20020;-68
2021/06/08 07:13:33;;;;;;;36.87;21.73;;;;;;;;;;5049877;28;20128;-68
2021/06/08 07:15:58;;;;;;;29.63;19.42;;;;;;;;;;5047934;28;20753;-68
2021/06/08 07:18:24;;;;;;;30.30;20.02;;;;;;;;;;5045463;28;20018;-67
2021/06/08 07:20:49;;;;;;;31.17;19.63;;;;;;;;;;5047851;28;20061;-69
2021/06/08 07:23:17;;;;;;;25.57;18.30;;;;;;;;;;5050078;28;20025;-68
2021/06/08 07:25:43;;;;;;;29.75;19.60;;;;;;;;;;5049427;28;20741;-67
2021/06/08 07:28:09;;;;;;;26.10;18.92;;;;;;;;;;5049774;28;20025;-68
2021/06/08 07:30:35;;;;;;;29.40;18.45;;;;;;;;;;5046599;28;20482;-68
2021/06/08 07:33:07;;;;;;;28.90;19.33;;;;;;;;;;5049482;28;20387;-68
2021/06/08 07:35:51;;;;;;;27.10;17.88;;;;;;;;;;5049528;28;20016;-68
2021/06/08 07:38:28;;;;;;;27.92;18.48;;;;;;;;;;5049169;28;20455;-68
2021/06/08 07:40:55;;;;;;;29.63;18.63;;;;;;;;;;5049173;28;20021;-68
2021/06/08 07:43:22;;;;;;;25.50;16.65;;;;;;;;;;5049191;28;20044;-68
2021/06/08 07:45:49;;;;;;;21.67;15.80;;;;;;;;;;5049222;28;20096;-69
2021/06/08 07:48:15;;;;;;;21.77;15.35;;;;;;;;;;5031287;28;20026;-70
2021/06/08 07:50:43;;;;;;;26.20;14.32;;;;;;;;;;5038540;28;20013;-68
2021/06/08 07:53:08;;;;;;;24.15;16.00;;;;;;;;;;5050054;28;20025;-69
2021/06/08 07:55:35;;;;;;;23.55;15.52;;;;;;;;;;5049490;28;20032;-69
2021/06/08 07:58:00;;;;;;;24.38;15.10;;;;;;;;;;5049784;28;20087;-68
2021/06/08 08:00:25;;;;;;;23.63;16.20;;;;;;;;;;5048120;28;20044;-68
2021/06/08 08:02:54;;;;;;;24.85;15.05;;;;;;;;;;5047282;28;20108;-67
2021/06/08 08:05:21;;;;;;;26.48;17.92;;;;;;;;;;5046946;28;20040;-68
2021/06/08 08:07:47;;;;;;;33.55;21.02;;;;;;;;;;5046088;28;20025;-69
2021/06/08 08:10:12;;;;;;;20.42;13.43;;;;;;;;;;5049194;28;20017;-68
2021/06/08 08:12:39;;;;;;;22.75;15.52;;;;;;;;;;5048845;28;20033;-67
2021/06/08 08:15:05;;;;;;;34.42;21.98;;;;;;;;;;5049345;28;20368;-67
2021/06/08 08:17:30;;;;;;;34.63;22.70;;;;;;;;;;5051032;28;20024;-67
2021/06/08 08:19:56;;;;;;;39.45;24.20;;;;;;;;;;5047452;28;20107;-68
2021/06/08 08:22:21;;;;;;;28.98;21.25;;;;;;;;;;5048879;28;20032;-70
2021/06/08 08:24:47;;;;;;;33.45;21.77;;;;;;;;;;5033136;28;20026;-66
2021/06/08 08:27:14;;;;;;;30.80;18.40;;;;;;;;;;5051836;28;20044;-67
2021/06/08 08:29:40;;;;;;;45.78;20.60;;;;;;;;;;5045950;28;20029;-67
2021/06/08 08:32:06;;;;;;;29.92;20.67;;;;;;;;;;5036705;28;20017;-66
2021/06/08 08:34:31;;;;;;;27.83;19.67;;;;;;;;;;5052110;28;20021;-66
2021/06/08 08:36:56;;;;;;;37.42;20.73;;;;;;;;;;5051713;28;20040;-67
2021/06/08 08:39:22;;;;;;;35.17;22.60;;;;;;;;;;5034584;28;20036;-66
2021/06/08 08:41:47;;;;;;;33.37;21.20;;;;;;;;;;5052099;28;20047;-69
2021/06/08 08:44:12;;;;;;;31.67;21.15;;;;;;;;;;5052034;28;20271;-68
2021/06/08 08:46:38;;;;;;;33.57;21.07;;;;;;;;;;5051713;28;20462;-71
2021/06/08 08:49:05;;;;;;;35.45;21.42;;;;;;;;;;5051575;28;20288;-68
2021/06/08 08:51:30;;;;;;;32.35;20.10;;;;;;;;;;5050837;28;20020;-69
2021/06/08 08:53:59;;;;;;;35.40;20.83;;;;;;;;;;5052240;28;20025;-68
2021/06/08 08:56:25;;;;;;;34.85;21.67;;;;;;;;;;5052128;28;20040;-68
2021/06/08 08:58:51;;;;;;;32.78;21.10;;;;;;;;;;5051261;28;20396;-68
2021/06/08 09:01:16;;;;;;;33.10;21.50;;;;;;;;;;5051899;28;20147;-69
2021/06/08 09:03:43;;;;;;;32.92;20.70;;;;;;;;;;5051733;28;20038;-68
2021/06/08 09:06:11;;;;;;;29.05;19.60;;;;;;;;;;5051460;28;20360;-68
2021/06/08 09:08:37;;;;;;;36.80;22.08;;;;;;;;;;5041809;28;20329;-68
2021/06/08 09:11:05;;;;;;;36.03;20.95;;;;;;;;;;5036584;28;20009;-69
2021/06/08 09:13:30;;;;;;;35.97;22.30;;;;;;;;;;5051681;28;20050;-69
2021/06/08 09:15:55;;;;;;;39.77;22.43;;;;;;;;;;5051580;28;20049;-68
2021/06/08 09:18:23;;;;;;;30.20;20.87;;;;;;;;;;5051497;28;20329;-68
2021/06/08 09:20:48;;;;;;;36.08;21.50;;;;;;;;;;5033653;28;20329;-68
2021/06/08 09:23:20;;;;;;;37.15;19.60;;;;;;;;;;5051883;28;20116;-66
2021/06/08 09:25:50;;;;;;;35.95;19.63;;;;;;;;;;5039701;28;20025;-68
2021/06/08 09:28:19;;;;;;;24.02;15.88;;;;;;;;;;5050752;28;20024;-68
2021/06/08 09:30:44;;;;;;;22.83;14.77;;;;;;;;;;5050895;28;20025;-69
2021/06/08 09:33:18;;;;;;;27.13;17.20;;;;;;;;;;5050918;28;20036;-69
2021/06/08 09:36:01;;;;;;;19.13;13.82;;;;;;;;;;5051337;28;20017;-69
2021/06/08 09:38:35;;;;;;;21.05;11.27;;;;;;;;;;5051089;28;20017;-68
2021/06/08 09:41:10;;;;;;;19.83;12.27;;;;;;;;;;5034975;28;20020;-68
2021/06/08 09:43:46;;;;;;;20.27;12.68;;;;;;;;;;5041057;28;20120;-67
2021/06/08 09:46:11;;;;;;;19.60;12.45;;;;;;;;;;5050874;28;20023;-68
2021/06/08 09:48:48;;;;;;;21.37;14.20;;;;;;;;;;5049882;28;20021;-66
2021/06/08 09:51:13;;;;;;;20.67;14.88;;;;;;;;;;5051127;28;20617;-68
2021/06/08 09:53:38;;;;;;;26.73;14.77;;;;;;;;;;5050506;28;20104;-67
2021/06/08 09:56:08;;;;;;;18.67;14.43;;;;;;;;;;5049929;28;20263;-68
2021/06/08 09:58:34;;;;;;;19.87;13.40;;;;;;;;;;5047136;28;20025;-68
2021/06/08 10:01:07;;;;;;;19.67;12.05;;;;;;;;;;5050300;28;20029;-68
2021/06/08 10:03:33;;;;;;;22.52;12.52;;;;;;;;;;5050177;28;20021;-67
2021/06/08 10:06:08;;;;;;;19.15;13.75;;;;;;;;;;5050694;28;20494;-67
2021/06/08 10:08:35;;;;;;;20.45;13.00;;;;;;;;;;5049523;28;20429;-67
2021/06/08 10:11:01;;;;;;;21.25;12.90;;;;;;;;;;5050835;28;20104;-67
2021/06/08 10:13:26;;;;;;;24.70;12.82;;;;;;;;;;5048967;28;20159;-67
2021/06/08 10:15:51;;;;;;;18.43;10.80;;;;;;;;;;5032752;28;20032;-68
2021/06/08 10:18:17;;;;;;;16.83;10.70;;;;;;;;;;5049224;28;20290;-68
2021/06/08 10:20:55;;;;;;;16.50;10.85;;;;;;;;;;5050454;28;20072;-68
2021/06/08 10:23:25;;;;;;;16.55;9.55;;;;;;;;;;5048993;28;20021;-66
2021/06/08 10:25:51;;;;;;;15.85;10.40;;;;;;;;;;5049908;28;20528;-66
2021/06/08 10:28:17;;;;;;;15.73;11.27;;;;;;;;;;5049841;28;20033;-66
2021/06/08 10:30:43;;;;;;;15.52;10.77;;;;;;;;;;5038543;28;20383;-66
2021/06/08 10:33:08;;;;;;;14.07;10.98;;;;;;;;;;5039631;28;20045;-66
2021/06/08 10:35:35;;;;;;;15.80;10.32;;;;;;;;;;5050396;28;20449;-66
2021/06/08 10:38:01;;;;;;;19.67;10.30;;;;;;;;;;5049198;28;20025;-67
2021/06/08 10:40:27;;;;;;;21.48;11.13;;;;;;;;;;5049405;28;20155;-67
2021/06/08 10:42:52;;;;;;;15.80;11.32;;;;;;;;;;5049616;28;20150;-66
2021/06/08 10:45:17;;;;;;;17.13;10.97;;;;;;;;;;5049636;28;20025;-67
2021/06/08 10:48:03;;;;;;;18.65;11.18;;;;;;;;;;5048463;28;20689;-67
2021/06/08 10:50:30;;;;;;;16.42;11.68;;;;;;;;;;5048693;28;20036;-66
2021/06/08 10:52:56;;;;;;;18.23;11.75;;;;;;;;;;5036474;28;20029;-67
2021/06/08 10:55:26;;;;;;;19.17;12.15;;;;;;;;;;5049352;28;20486;-66
2021/06/08 10:57:51;;;;;;;15.75;10.63;;;;;;;;;;5046512;28;20386;-67
2021/06/08 11:00:25;;;;;;;14.73;11.60;;;;;;;;;;5048889;28;20031;-66
2021/06/08 11:03:00;;;;;;;17.02;10.95;;;;;;;;;;5049177;28;20060;-67
2021/06/08 11:05:44;;;;;;;18.35;12.18;;;;;;;;;;5049693;28;20017;-66
2021/06/08 11:08:09;;;;;;;19.25;13.73;;;;;;;;;;5049238;28;20434;-66
2021/06/08 11:10:39;;;;;;;20.08;14.25;;;;;;;;;;5049691;28;20033;-66
2021/06/08 11:13:08;;;;;;;22.13;14.68;;;;;;;;;;5045859;28;20467;-66
2021/06/08 11:15:43;;;;;;;19.02;13.15;;;;;;;;;;5049772;28;20028;-66
2021/06/08 11:18:17;;;;;;;21.08;13.45;;;;;;;;;;5049647;28;20514;-65
2021/06/08 11:20:43;;;;;;;23.33;13.23;;;;;;;;;;5045439;28;20281;-65
2021/06/08 11:23:08;;;;;;;20.52;12.45;;;;;;;;;;5049733;28;20486;-65
2021/06/08 11:25:41;;;;;;;20.20;11.85;;;;;;;;;;5049497;28;20095;-65
2021/06/08 11:28:11;;;;;;;15.65;11.55;;;;;;;;;;5044451;28;20025;-66
2021/06/08 11:30:36;;;;;;;;;;;;;;;;;;5048984;28;20095;-65
2021/06/08 11:33:04;;;;;;;17.60;9.40;;;;;;;;;;5030909;28;20362;-64
2021/06/08 11:35:43;;;;;;;16.58;9.68;;;;;;;;;;5049908;28;20017;-65
2021/06/08 11:38:12;;;;;;;10.85;8.23;;;;;;;;;;5040424;28;20024;-64
2021/06/08 11:40:42;;;;;;;11.68;8.23;;;;;;;;;;5049874;28;20048;-65
2021/06/08 11:43:10;;;;;;;11.57;7.95;;;;;;;;;;5048410;28;20372;-64
2021/06/08 11:45:46;;;;;;;13.68;9.15;;;;;;;;;;5049203;28;20534;-65
2021/06/08 11:48:30;;;;;;;17.50;9.55;;;;;;;;;;5048751;28;20128;-68
2021/06/08 11:50:55;;;;;;;11.20;8.23;;;;;;;;;;5050588;28;20501;-69
2021/06/08 11:53:21;;;;;;;15.50;10.00;;;;;;;;;;5048466;28;20025;-65
2021/06/08 11:56:05;;;;;;;12.07;8.60;;;;;;;;;;5052463;28;20106;-66
2021/06/08 11:58:31;;;;;;;17.13;9.35;;;;;;;;;;5052597;28;20108;-68
2021/06/08 12:00:56;;;;;;;12.35;8.52;;;;;;;;;;5051921;28;20025;-68
2021/06/08 12:03:25;;;;;;;15.80;9.47;;;;;;;;;;5052997;28;20670;-65
2021/06/08 12:05:50;;;;;;;12.00;8.75;;;;;;;;;;5052039;28;20255;-67
2021/06/08 12:08:42;;;;;;;12.77;8.52;;;;;;;;;;5052357;28;20447;-66
2021/06/08 12:11:13;;;;;;;11.43;8.23;;;;;;;;;;5047489;28;20041;-65
2021/06/08 12:13:41;;;;;;;13.98;8.05;;;;;;;;;;5054663;23;20509;-88
2021/06/08 12:16:10;;;;;;;20.10;7.82;;;;;;;;;;5034412;28;20067;-89
2021/06/08 12:18:36;;;;;;;16.17;8.43;;;;;;;;;;5051135;28;20086;-87
2021/06/08 12:21:17;;;;;;;14.18;8.50;;;;;;;;;;5035159;28;20078;-89
2021/06/08 12:23:43;;;;;;;11.88;7.70;;;;;;;;;;5036117;28;20028;-89
2021/06/08 12:26:08;;;;;;;9.85;8.00;;;;;;;;;;5033339;28;20367;-88
2021/06/08 12:28:34;;;;;;;11.95;8.25;;;;;;;;;;5034013;28;20044;-89
2021/06/08 12:31:12;;;;;;;16.13;9.38;;;;;;;;;;5033886;28;20025;-90
2021/06/08 12:33:37;;;;;;;12.05;8.45;;;;;;;;;;5048512;28;20063;-89
2021/06/08 12:36:05;;;;;;;14.70;9.25;;;;;;;;;;5032019;28;20025;-91
2021/06/08 12:38:31;;;;;;;13.43;9.65;;;;;;;;;;5026751;28;20545;-89
2021/06/08 12:41:01;;;;;;;12.68;9.05;;;;;;;;;;5028255;28;20108;-88
2021/06/08 12:43:27;;;;;;;15.43;9.13;;;;;;;;;;5046087;28;20119;-89
2021/06/08 12:45:56;;;;;;;13.85;8.90;;;;;;;;;;5030170;28;20787;-89
2021/06/08 12:48:22;;;;;;;13.00;10.02;;;;;;;;;;5032310;28;20116;-91
2021/06/08 12:51:10;;;;;;;24.10;11.80;;;;;;;;;;5049723;28;20096;-89
2021/06/08 12:53:37;;;;;;;20.48;10.20;;;;;;;;;;5029404;28;20465;-89
2021/06/08 12:56:03;;;;;;;17.40;9.85;;;;;;;;;;5027657;28;20095;-88
2021/06/08 12:58:28;;;;;;;12.70;8.70;;;;;;;;;;5032976;28;20478;-90
2021/06/08 13:00:55;;;;;;;15.35;8.57;;;;;;;;;;5047782;28;20025;-90
2021/06/08 13:03:22;;;;;;;13.00;7.28;;;;;;;;;;5030441;28;20022;-89
2021/06/08 13:05:47;;;;;;;12.77;8.32;;;;;;;;;;5031447;28;20497;-89
2021/06/08 13:08:15;;;;;;;13.25;8.20;;;;;;;;;;5046459;28;20028;-89
2021/06/08 13:10:40;;;;;;;12.80;8.00;;;;;;;;;;5032791;28;20025;-88
2021/06/08 13:13:07;;;;;;;12.50;8.60;;;;;;;;;;5035535;28;20027;-89
2021/06/08 13:15:35;;;;;;;13.50;7.63;;;;;;;;;;5025533;28;20432;-89
2021/06/08 13:18:04;;;;;;;14.82;8.80;;;;;;;;;;5045742;28;20032;-90
2021/06/08 13:20:36;;;;;;;10.40;7.07;;;;;;;;;;5048811;28;20079;-90
2021/06/08 13:23:01;;;;;;;10.90;8.02;;;;;;;;;;5029668;28;20512;-90
2021/06/08 13:25:27;;;;;;;10.73;8.02;;;;;;;;;;5027938;28;20025;-89
2021/06/08 13:27:53;;;;;;;13.82;7.30;;;;;;;;;;5029989;28;20028;-89
2021/06/08 13:30:19;;;;;;;13.30;7.70;;;;;;;;;;5029704;28;20027;-90
2021/06/08 13:32:53;;;;;;;11.23;7.95;;;;;;;;;;5048340;28;20108;-88
2021/06/08 13:35:19;;;;;;;13.50;8.02;;;;;;;;;;5025123;28;20440;-90
2021/06/08 13:37:46;;;;;;;11.57;7.68;;;;;;;;;;5027845;28;20025;-89
2021/06/08 13:40:19;;;;;;;11.25;7.05;;;;;;;;;;5029541;28;20087;-86
2021/06/08 13:42:59;;;;;;;12.15;6.97;;;;;;;;;;5038831;28;20037;-88
2021/06/08 13:46:00;;;;;;;9.00;6.50;;;;;;;;;;5025024;28;20025;-88
2021/06/08 13:48:48;;;;;;;10.43;7.50;;;;;;;;;;4962245;28;20126;-91
2021/06/08 13:51:22;;;;;;;14.55;8.27;;;;;;;;;;5030567;28;20086;-88
2021/06/08 13:54:30;;;;;;;17.20;9.23;;;;;;;;;;5045364;28;22429;-90
2021/06/08 13:57:04;;;;;;;13.57;9.30;;;;;;;;;;4975030;28;20136;-86
2021/06/08 14:03:12;;;;;;;13.35;8.98;;;;;;;;;;4997000;28;20061;-90
2021/06/08 14:05:40;;;;;;;15.93;8.80;;;;;;;;;;4976646;28;20058;-90
2021/06/08 14:08:21;;;;;;;15.95;9.55;;;;;;;;;;4988694;28;20033;-87
2021/06/08 14:10:50;;;;;;;15.70;8.95;;;;;;;;;;5040863;28;20017;-88
2021/06/08 14:13:15;;;;;;;12.75;8.85;;;;;;;;;;5046569;28;20033;-90
2021/06/08 14:15:50;;;;;;;15.48;9.13;;;;;;;;;;5030655;28;20448;-89
2021/06/08 14:18:16;;;;;;;18.85;7.55;;;;;;;;;;5031046;28;20108;-90
2021/06/08 14:20:41;;;;;;;12.25;8.27;;;;;;;;;;5031988;28;20129;-89
2021/06/08 14:23:06;;;;;;;12.25;8.30;;;;;;;;;;5029213;28;20051;-90
2021/06/08 14:25:36;;;;;;;14.07;8.02;;;;;;;;;;5024310;28;20031;-91
2021/06/08 14:28:01;;;;;;;11.10;8.80;;;;;;;;;;5030931;28;20054;-88